Time;durP1;ratioP1;P1;durP2;ratioP2;P2;SDS_P1;SDS_P2;PMS_P1;PMS_P2;Temp;Humidity;BMP_temperature;BMP_pressure;BME280_temperature;BME280_humidity;BME280_pressure;Samples;Min_cycle;Max_cycle;Signal;HPM_P1;HPM_P2
2023/10/28 00:02:00;;;;;;;29.45;12.10;;;9.40;99.90;;;;;;5062071;28;20044;-93
2023/10/28 00:04:26;;;;;;;23.52;11.88;;;9.40;99.90;;;;;;5065505;28;20022;-93
2023/10/28 00:06:52;;;;;;;30.40;13.02;;;9.40;99.90;;;;;;5060131;28;20059;-93
2023/10/28 00:09:20;;;;;;;29.77;12.80;;;9.40;99.90;;;;;;5064091;28;20390;-92
2023/10/28 00:11:46;;;;;;;29.17;12.38;;;9.40;99.90;;;;;;5062590;28;20082;-93
2023/10/28 00:14:12;;;;;;;24.95;12.25;;;9.30;99.90;;;;;;5060685;28;20024;-93
2023/10/28 00:16:38;;;;;;;33.80;12.95;;;9.30;99.90;;;;;;5064012;28;20025;-92
2023/10/28 00:19:07;;;;;;;26.25;13.05;;;9.30;99.90;;;;;;5061375;28;20064;-92
2023/10/28 00:21:34;;;;;;;31.50;12.50;;;9.30;99.90;;;;;;5063811;28;20509;-92
2023/10/28 00:24:01;;;;;;;29.15;13.45;;;9.30;99.90;;;;;;5058609;28;20112;-92
2023/10/28 00:26:27;;;;;;;32.97;13.18;;;9.20;99.90;;;;;;5059215;28;20032;-93
2023/10/28 00:28:53;;;;;;;29.63;13.18;;;9.20;99.90;;;;;;5062170;28;20062;-93
2023/10/28 00:31:19;;;;;;;32.42;11.98;;;9.20;99.90;;;;;;5062898;28;20020;-93
2023/10/28 00:33:45;;;;;;;30.63;12.20;;;9.20;99.90;;;;;;5065840;28;20040;-93
2023/10/28 00:36:11;;;;;;;24.15;10.50;;;9.20;99.90;;;;;;5061735;28;20029;-92
2023/10/28 00:38:37;;;;;;;31.75;12.27;;;9.20;99.90;;;;;;5057712;28;20017;-92
2023/10/28 00:41:03;;;;;;;28.95;11.43;;;9.10;99.90;;;;;;5060411;28;20131;-92
2023/10/28 00:43:30;;;;;;;29.92;11.65;;;9.10;99.90;;;;;;5061641;28;20118;-92
2023/10/28 00:45:56;;;;;;;30.05;10.93;;;9.10;99.90;;;;;;5060471;28;20502;-94
2023/10/28 00:48:23;;;;;;;35.58;11.57;;;9.10;99.90;;;;;;5062733;28;20055;-94
2023/10/28 00:50:49;;;;;;;33.05;11.43;;;9.10;99.90;;;;;;5064028;28;20025;-93
2023/10/28 00:53:17;;;;;;;24.85;10.57;;;9.10;99.90;;;;;;5062433;28;20410;-92
2023/10/28 00:55:43;;;;;;;33.58;10.95;;;9.10;99.90;;;;;;5062508;28;20081;-93
2023/10/28 00:58:09;;;;;;;31.92;11.70;;;9.10;99.90;;;;;;5064469;28;20025;-92
2023/10/28 01:00:35;;;;;;;28.15;11.32;;;9.10;99.90;;;;;;5060420;28;20033;-92
2023/10/28 01:03:02;;;;;;;33.20;11.68;;;9.10;99.90;;;;;;5062206;28;20024;-92
2023/10/28 01:05:30;;;;;;;25.02;10.73;;;9.10;99.90;;;;;;5061152;28;20082;-93
2023/10/28 01:07:58;;;;;;;29.10;10.73;;;9.00;99.90;;;;;;5057319;28;20044;-93
2023/10/28 01:10:29;;;;;;;25.10;9.80;;;9.00;99.90;;;;;;5060631;28;20029;-91
2023/10/28 01:12:54;;;;;;;;;;;9.00;99.90;;;;;;5063507;28;20024;-91
2023/10/28 01:15:21;;;;;;;32.50;10.68;;;9.00;99.90;;;;;;5060834;28;20600;-93
2023/10/28 01:17:48;;;;;;;29.05;10.45;;;9.00;99.90;;;;;;5060208;28;20017;-92
2023/10/28 01:20:13;;;;;;;25.80;9.43;;;9.00;99.90;;;;;;5062714;28;20027;-93
2023/10/28 01:22:39;;;;;;;31.88;10.52;;;8.90;99.90;;;;;;5060136;28;20084;-93
2023/10/28 01:25:06;;;;;;;27.77;9.10;;;8.90;99.90;;;;;;5061606;28;20432;-92
2023/10/28 01:27:31;;;;;;;34.00;9.35;;;8.90;99.90;;;;;;5062087;28;20070;-92
2023/10/28 01:29:57;;;;;;;30.08;9.90;;;8.90;99.90;;;;;;5062162;28;20408;-92
2023/10/28 01:32:23;;;;;;;26.15;9.55;;;8.90;99.90;;;;;;5057797;28;20025;-92
2023/10/28 01:34:51;;;;;;;27.10;9.07;;;8.90;99.90;;;;;;5060786;28;20033;-92
2023/10/28 01:37:17;;;;;;;31.45;9.70;;;8.90;99.90;;;;;;5062972;28;20436;-92
2023/10/28 01:39:48;;;;;;;32.58;9.90;;;9.00;99.90;;;;;;5063253;28;20025;-93
2023/10/28 01:42:15;;;;;;;32.60;8.95;;;9.00;99.90;;;;;;5067151;28;20411;-93
2023/10/28 01:44:41;;;;;;;27.80;8.57;;;9.00;99.90;;;;;;5063278;28;20029;-90
2023/10/28 01:47:08;;;;;;;24.92;9.07;;;9.10;99.90;;;;;;5068187;28;20398;-91
2023/10/28 01:49:35;;;;;;;30.98;8.68;;;9.20;99.90;;;;;;5064217;28;20025;-92
2023/10/28 01:52:02;;;;;;;26.38;8.32;;;9.20;99.90;;;;;;5086463;28;20067;-92
2023/10/28 01:54:29;;;;;;;32.45;9.18;;;9.20;99.90;;;;;;5063265;28;20119;-93
2023/10/28 01:56:57;;;;;;;24.88;8.35;;;9.20;99.90;;;;;;5063454;28;20062;-90
2023/10/28 01:59:27;;;;;;;24.75;8.18;;;9.20;99.90;;;;;;5075202;28;20032;-92
2023/10/28 02:01:53;;;;;;;28.07;8.97;;;9.20;99.90;;;;;;5065895;28;20020;-91
2023/10/28 02:04:19;;;;;;;18.83;6.93;;;9.20;99.90;;;;;;5062826;28;20617;-92
2023/10/28 02:06:44;;;;;;;21.55;7.15;;;9.20;99.90;;;;;;5063630;28;20029;-92
2023/10/28 02:09:11;;;;;;;19.48;7.07;;;9.20;99.90;;;;;;5063976;28;20096;-93
2023/10/28 02:11:39;;;;;;;28.02;7.13;;;9.20;99.90;;;;;;5063770;28;20024;-92
2023/10/28 02:14:07;;;;;;;24.40;7.38;;;9.20;99.90;;;;;;5063781;28;20036;-91
2023/10/28 02:16:33;;;;;;;18.60;7.28;;;9.20;99.90;;;;;;5063113;28;20021;-91
2023/10/28 02:18:59;;;;;;;22.05;8.05;;;9.20;99.90;;;;;;5064771;28;20024;-93
2023/10/28 02:21:24;;;;;;;27.00;7.85;;;9.20;99.90;;;;;;5063760;28;20552;-92
2023/10/28 02:23:50;;;;;;;27.13;7.05;;;9.10;99.90;;;;;;5068414;28;20017;-93
2023/10/28 02:26:16;;;;;;;20.77;6.65;;;9.20;99.90;;;;;;5065700;28;20021;-93
2023/10/28 02:28:42;;;;;;;18.20;6.05;;;9.20;99.90;;;;;;5065802;28;20130;-92
2023/10/28 02:31:11;;;;;;;24.92;7.05;;;9.20;99.90;;;;;;5063170;28;20063;-93
2023/10/28 02:33:37;;;;;;;19.77;7.35;;;9.20;99.90;;;;;;5060172;28;20110;-92
2023/10/28 02:36:07;;;;;;;27.13;6.57;;;9.20;99.90;;;;;;5065734;28;20459;-94
2023/10/28 02:38:33;;;;;;;21.40;6.05;;;9.10;99.90;;;;;;5064502;28;20021;-94
2023/10/28 02:40:59;;;;;;;17.90;6.30;;;9.10;99.90;;;;;;5066754;28;20414;-93
2023/10/28 02:43:24;;;;;;;16.73;5.35;;;9.10;99.90;;;;;;5073473;28;20139;-93
2023/10/28 02:45:50;;;;;;;18.75;5.43;;;9.10;99.90;;;;;;5070739;28;20111;-93
2023/10/28 02:48:16;;;;;;;17.92;5.90;;;9.10;99.90;;;;;;5065605;28;20025;-93
2023/10/28 02:50:41;;;;;;;16.52;5.30;;;9.10;99.90;;;;;;5071262;28;20033;-94
2023/10/28 02:53:07;;;;;;;18.33;5.45;;;9.10;99.90;;;;;;5072161;28;20021;-93
2023/10/28 02:55:36;;;;;;;18.63;5.82;;;9.10;99.90;;;;;;5070666;28;20115;-94
2023/10/28 02:58:03;;;;;;;24.42;5.85;;;9.10;99.90;;;;;;5066893;28;20017;-93
2023/10/28 03:00:28;;;;;;;21.50;5.80;;;9.10;99.90;;;;;;5067510;28;20024;-92
2023/10/28 03:02:55;;;;;;;16.35;5.68;;;9.10;99.90;;;;;;5064778;28;20013;-93
2023/10/28 03:05:23;;;;;;;15.38;5.68;;;9.10;99.90;;;;;;5062463;28;20024;-92
2023/10/28 03:07:50;;;;;;;21.40;5.80;;;9.10;99.90;;;;;;5063717;28;20017;-92
2023/10/28 03:10:15;;;;;;;18.95;5.25;;;9.00;99.90;;;;;;5066396;28;20028;-92
2023/10/28 03:12:41;;;;;;;16.52;5.47;;;9.10;99.90;;;;;;5069133;28;20039;-93
2023/10/28 03:15:09;;;;;;;16.90;5.32;;;9.10;99.90;;;;;;5063162;28;20039;-93
2023/10/28 03:17:34;;;;;;;17.13;5.80;;;9.00;99.90;;;;;;5066129;28;20024;-93
2023/10/28 03:20:00;;;;;;;15.65;5.07;;;9.10;99.90;;;;;;5065648;28;20024;-92
2023/10/28 03:22:26;;;;;;;19.27;5.30;;;9.10;99.90;;;;;;5065414;28;20031;-93
2023/10/28 03:24:51;;;;;;;18.35;5.53;;;9.00;99.90;;;;;;5063048;28;20017;-94
2023/10/28 03:27:17;;;;;;;18.35;5.30;;;9.00;99.90;;;;;;5064701;28;20065;-93
2023/10/28 03:29:45;;;;;;;15.55;5.32;;;9.10;99.90;;;;;;5061751;28;20099;-94
2023/10/28 03:32:11;;;;;;;16.52;5.65;;;9.10;99.90;;;;;;5061801;28;20021;-93
2023/10/28 03:34:37;;;;;;;14.38;5.32;;;9.10;99.90;;;;;;5059532;28;20081;-93
2023/10/28 03:37:03;;;;;;;17.17;5.90;;;9.10;99.90;;;;;;5065651;28;20153;-93
2023/10/28 03:39:29;;;;;;;15.05;5.53;;;9.00;99.90;;;;;;5066391;28;20024;-93
2023/10/28 03:41:54;;;;;;;17.10;5.50;;;9.00;99.90;;;;;;5066026;28;20028;-93
2023/10/28 03:44:20;;;;;;;18.23;5.88;;;9.00;99.90;;;;;;5063551;28;20367;-93
2023/10/28 03:46:46;;;;;;;18.50;5.32;;;9.00;99.90;;;;;;5061724;28;20108;-94
2023/10/28 03:49:12;;;;;;;16.98;5.45;;;9.00;99.90;;;;;;5064383;28;20020;-93
2023/10/28 03:51:40;;;;;;;19.05;6.20;;;8.90;99.90;;;;;;5063097;28;20025;-93
2023/10/28 03:54:07;;;;;;;18.58;5.53;;;8.90;99.90;;;;;;5064123;28;20028;-93
2023/10/28 03:56:32;;;;;;;13.05;5.35;;;8.90;99.90;;;;;;5066166;28;20028;-92
2023/10/28 03:58:58;;;;;;;20.33;5.40;;;8.90;99.90;;;;;;5066895;28;20023;-92
2023/10/28 04:01:24;;;;;;;11.93;4.57;;;8.80;99.90;;;;;;5063317;28;20082;-93
2023/10/28 04:03:49;;;;;;;18.38;5.30;;;8.80;99.90;;;;;;5061056;28;20020;-93
2023/10/28 04:06:15;;;;;;;13.55;5.43;;;8.80;99.90;;;;;;5058913;28;20096;-92
2023/10/28 04:08:41;;;;;;;14.48;5.78;;;8.70;99.90;;;;;;5064594;28;20032;-92
2023/10/28 04:11:07;;;;;;;13.93;5.55;;;8.70;99.90;;;;;;5064589;28;20028;-93
2023/10/28 04:13:33;;;;;;;22.33;6.40;;;8.70;99.90;;;;;;5062655;28;20056;-93
2023/10/28 04:15:59;;;;;;;15.25;5.90;;;8.70;99.90;;;;;;5062174;28;20136;-93
2023/10/28 04:18:24;;;;;;;12.77;5.00;;;8.70;99.90;;;;;;5063345;28;20466;-93
2023/10/28 04:20:50;;;;;;;16.40;5.65;;;8.70;99.90;;;;;;5060804;28;20031;-93
2023/10/28 04:23:17;;;;;;;16.77;5.80;;;8.70;99.90;;;;;;5063522;28;20020;-93
2023/10/28 04:25:43;;;;;;;12.95;5.35;;;8.70;99.90;;;;;;5066118;28;20115;-94
2023/10/28 04:28:08;;;;;;;16.00;5.88;;;8.70;99.90;;;;;;5066228;28;20549;-93
2023/10/28 04:30:34;;;;;;;13.88;5.65;;;8.70;99.90;;;;;;5061851;28;20029;-93
2023/10/28 04:33:00;;;;;;;13.85;5.93;;;8.60;99.90;;;;;;5064274;28;20043;-93
2023/10/28 04:35:26;;;;;;;14.23;6.13;;;8.60;99.90;;;;;;5066247;28;20032;-92
2023/10/28 04:37:52;;;;;;;15.25;5.70;;;8.60;99.90;;;;;;5065029;28;20017;-93
2023/10/28 04:40:17;;;;;;;13.20;5.68;;;8.60;99.90;;;;;;5066891;28;20103;-93
2023/10/28 04:42:44;;;;;;;12.85;6.22;;;8.60;99.90;;;;;;5059624;28;20108;-92
2023/10/28 04:45:10;;;;;;;17.25;6.82;;;8.60;99.90;;;;;;5061201;28;20055;-94
2023/10/28 04:47:37;;;;;;;18.70;7.35;;;8.50;99.90;;;;;;5062586;28;20024;-92
2023/10/28 04:50:04;;;;;;;16.40;6.05;;;8.50;99.90;;;;;;5060555;28;20388;-94
2023/10/28 04:52:30;;;;;;;10.60;5.78;;;8.50;99.90;;;;;;5063548;28;20078;-93
2023/10/28 04:54:56;;;;;;;11.13;5.10;;;8.50;99.90;;;;;;5060306;28;20028;-92
2023/10/28 04:57:22;;;;;;;14.40;5.43;;;8.50;99.90;;;;;;5063022;28;20295;-93
2023/10/28 04:59:49;;;;;;;13.35;5.53;;;8.50;99.90;;;;;;5064271;28;20021;-92
2023/10/28 05:02:15;;;;;;;13.02;6.32;;;8.50;99.90;;;;;;5061833;28;20025;-93
2023/10/28 05:04:41;;;;;;;13.25;6.78;;;8.50;99.90;;;;;;5059138;28;20021;-93
2023/10/28 05:07:06;;;;;;;13.65;5.88;;;8.40;99.90;;;;;;5063497;28;20474;-94
2023/10/28 05:09:32;;;;;;;14.52;6.30;;;8.40;99.90;;;;;;5065465;28;20073;-92
2023/10/28 05:11:58;;;;;;;19.45;7.75;;;8.40;99.90;;;;;;5071798;28;20036;-93
2023/10/28 05:14:25;;;;;;;17.42;7.05;;;8.40;99.90;;;;;;5071002;28;20094;-93
2023/10/28 05:16:55;;;;;;;14.55;6.50;;;8.40;99.90;;;;;;5066055;28;20020;-93
2023/10/28 05:19:22;;;;;;;21.05;7.72;;;8.40;99.90;;;;;;5074672;28;20122;-93
2023/10/28 05:21:48;;;;;;;22.58;7.47;;;8.50;99.90;;;;;;5062181;28;20433;-92
2023/10/28 05:24:14;;;;;;;19.30;7.47;;;8.40;99.90;;;;;;5067741;28;20017;-93
2023/10/28 05:26:40;;;;;;;15.85;7.68;;;8.40;99.90;;;;;;5067857;28;20489;-92
2023/10/28 05:29:06;;;;;;;18.10;7.68;;;8.40;99.90;;;;;;5066426;28;20021;-93
2023/10/28 05:31:32;;;;;;;20.45;7.68;;;8.40;99.90;;;;;;5062477;28;20029;-92
2023/10/28 05:34:00;;;;;;;26.73;8.32;;;8.40;99.90;;;;;;5072164;28;20036;-94
2023/10/28 05:36:25;;;;;;;25.05;8.45;;;8.40;99.90;;;;;;5070475;28;20033;-92
2023/10/28 05:38:53;;;;;;;28.58;8.85;;;8.40;99.90;;;;;;5067442;28;20027;-92
2023/10/28 05:41:19;;;;;;;26.45;10.02;;;8.40;99.90;;;;;;5069360;28;20068;-93
2023/10/28 05:43:44;;;;;;;27.23;10.45;;;8.40;99.90;;;;;;5067277;28;20452;-93
2023/10/28 05:46:13;;;;;;;29.45;10.55;;;8.40;99.90;;;;;;5065321;28;20547;-93
2023/10/28 05:48:39;;;;;;;23.27;8.80;;;8.30;99.90;;;;;;5073681;28;20021;-92
2023/10/28 05:51:05;;;;;;;21.58;9.18;;;8.30;99.90;;;;;;5071350;28;20028;-92
2023/10/28 05:53:31;;;;;;;30.83;9.85;;;8.30;99.90;;;;;;5067088;28;20012;-92
2023/10/28 05:55:57;;;;;;;25.48;9.35;;;8.30;99.90;;;;;;5066927;28;20383;-94
2023/10/28 05:58:23;;;;;;;25.25;8.40;;;8.30;99.90;;;;;;5066226;28;20051;-94
2023/10/28 06:00:49;;;;;;;18.52;7.47;;;8.20;99.90;;;;;;5064899;28;20025;-92
2023/10/28 06:03:14;;;;;;;18.48;8.40;;;8.20;99.90;;;;;;5064611;28;20418;-92
2023/10/28 06:05:40;;;;;;;14.55;6.65;;;8.20;99.90;;;;;;5065136;28;20036;-93
2023/10/28 06:08:08;;;;;;;21.27;8.35;;;8.20;99.90;;;;;;5069577;28;20048;-92
2023/10/28 06:10:34;;;;;;;16.00;6.55;;;8.20;99.90;;;;;;5069574;28;20024;-92
2023/10/28 06:13:01;;;;;;;18.30;6.85;;;8.20;99.90;;;;;;5061812;28;20025;-93
2023/10/28 06:15:26;;;;;;;15.85;5.97;;;8.10;99.90;;;;;;5067841;28;20544;-94
2023/10/28 06:17:52;;;;;;;14.77;6.13;;;8.10;99.90;;;;;;5066281;28;20021;-93
2023/10/28 06:20:20;;;;;;;18.73;6.45;;;8.10;99.90;;;;;;5064977;28;20025;-92
2023/10/28 06:22:46;;;;;;;16.75;6.28;;;8.10;99.90;;;;;;5058984;28;20102;-92
2023/10/28 06:25:14;;;;;;;15.43;7.10;;;8.10;99.90;;;;;;5083581;28;20363;-94
2023/10/28 06:27:40;;;;;;;13.48;6.13;;;8.10;99.90;;;;;;5065047;28;20032;-93
2023/10/28 06:30:07;;;;;;;14.75;6.10;;;8.10;99.90;;;;;;5066240;28;20025;-93
2023/10/28 06:32:32;;;;;;;16.92;7.10;;;8.00;99.90;;;;;;5069675;28;20012;-93
2023/10/28 06:34:58;;;;;;;17.88;6.90;;;8.10;99.90;;;;;;5068623;28;20458;-92
2023/10/28 06:37:24;;;;;;;16.20;6.57;;;8.10;99.90;;;;;;5067166;28;20035;-93
2023/10/28 06:39:49;;;;;;;17.17;6.00;;;8.10;99.90;;;;;;5061172;28;20025;-93
2023/10/28 06:42:15;;;;;;;12.95;6.28;;;8.10;99.90;;;;;;5067908;28;20021;-92
2023/10/28 06:44:43;;;;;;;15.25;6.32;;;8.00;99.90;;;;;;5060995;28;20494;-92
2023/10/28 06:47:09;;;;;;;12.98;5.22;;;8.00;99.90;;;;;;5066065;28;20029;-93
2023/10/28 06:49:35;;;;;;;12.52;6.35;;;8.00;99.90;;;;;;5065438;28;20033;-92
2023/10/28 06:52:01;;;;;;;10.13;5.57;;;8.00;99.90;;;;;;5066499;28;20020;-92
2023/10/28 06:54:27;;;;;;;11.63;5.97;;;8.00;99.90;;;;;;5063534;28;20109;-94
2023/10/28 06:56:53;;;;;;;13.38;5.60;;;8.00;99.90;;;;;;5064286;28;20025;-94
2023/10/28 06:59:18;;;;;;;10.75;5.47;;;8.00;99.90;;;;;;5065767;28;20021;-93
2023/10/28 07:01:44;;;;;;;12.82;5.95;;;8.00;99.90;;;;;;5066582;28;20075;-93
2023/10/28 07:04:11;;;;;;;14.10;6.68;;;8.00;99.90;;;;;;5064451;28;20462;-93
2023/10/28 07:06:37;;;;;;;12.18;5.60;;;8.00;99.90;;;;;;5060015;28;20021;-92
2023/10/28 07:09:03;;;;;;;11.63;5.93;;;8.00;99.90;;;;;;5064489;28;20021;-92
2023/10/28 07:11:29;;;;;;;10.20;4.88;;;8.00;99.90;;;;;;5065284;28;20025;-93
2023/10/28 07:13:55;;;;;;;10.43;5.13;;;8.00;99.90;;;;;;5070493;28;20028;-93
2023/10/28 07:16:20;;;;;;;11.63;5.13;;;8.00;99.90;;;;;;5064015;28;20100;-92
2023/10/28 07:18:46;;;;;;;11.07;5.10;;;8.00;99.90;;;;;;5059957;28;20066;-92
2023/10/28 07:21:13;;;;;;;10.95;5.03;;;8.00;99.90;;;;;;5066676;28;20036;-94
2023/10/28 07:23:39;;;;;;;9.63;4.55;;;8.00;99.90;;;;;;5066019;28;20103;-93
2023/10/28 07:26:04;;;;;;;8.35;4.05;;;8.00;99.90;;;;;;5069220;28;20052;-93
2023/10/28 07:28:34;;;;;;;10.77;4.88;;;8.10;99.90;;;;;;5064641;28;20504;-93
2023/10/28 07:31:01;;;;;;;7.78;4.35;;;8.00;99.90;;;;;;5062697;28;20067;-93
2023/10/28 07:33:27;;;;;;;9.32;4.63;;;8.10;99.90;;;;;;5058639;28;20094;-92
2023/10/28 07:35:52;;;;;;;9.27;4.88;;;8.10;99.90;;;;;;5065464;28;20044;-94
2023/10/28 07:38:19;;;;;;;8.77;5.22;;;8.10;99.90;;;;;;5069197;28;20012;-93
2023/10/28 07:40:46;;;;;;;8.32;4.68;;;8.10;99.90;;;;;;5067885;28;20050;-92
2023/10/28 07:43:13;;;;;;;8.00;4.63;;;8.10;99.90;;;;;;5064932;28;20040;-92
2023/10/28 07:45:42;;;;;;;10.75;4.90;;;8.10;99.90;;;;;;5063672;28;20013;-93
2023/10/28 07:48:09;;;;;;;10.85;5.55;;;8.20;99.90;;;;;;5064416;28;20024;-92
2023/10/28 07:50:39;;;;;;;12.23;5.80;;;8.20;99.90;;;;;;5061901;28;20036;-94
2023/10/28 07:53:05;;;;;;;12.73;6.13;;;8.20;99.90;;;;;;5070114;28;20020;-94
2023/10/28 07:55:34;;;;;;;10.88;4.82;;;8.20;99.90;;;;;;5063844;28;20044;-94
2023/10/28 07:58:00;;;;;;;12.10;5.80;;;8.20;99.90;;;;;;5067906;28;20028;-94
2023/10/28 08:00:26;;;;;;;9.70;3.95;;;8.20;99.90;;;;;;5062790;28;20119;-95
2023/10/28 08:02:55;;;;;;;11.38;5.30;;;8.30;99.90;;;;;;5067386;28;20059;-93
2023/10/28 08:05:21;;;;;;;11.32;5.32;;;8.40;99.90;;;;;;5065612;28;20115;-94
2023/10/28 08:07:48;;;;;;;8.57;5.03;;;8.40;99.90;;;;;;5068872;28;20056;-94
2023/10/28 08:10:14;;;;;;;15.60;6.18;;;8.50;99.90;;;;;;5064544;28;20124;-93
2023/10/28 08:12:41;;;;;;;11.55;5.03;;;8.50;99.90;;;;;;5065348;28;20120;-96
2023/10/28 08:15:09;;;;;;;12.60;5.53;;;8.50;99.90;;;;;;5066196;28;20110;-93
2023/10/28 08:17:35;;;;;;;12.60;5.75;;;8.60;99.90;;;;;;5072869;28;20641;-96
2023/10/28 08:20:03;;;;;;;8.43;5.00;;;8.60;99.90;;;;;;5066239;28;20077;-96
2023/10/28 08:22:29;;;;;;;9.20;4.55;;;8.70;99.90;;;;;;5070211;28;20732;-95
2023/10/28 08:24:55;;;;;;;7.07;3.92;;;8.70;99.90;;;;;;5070342;28;20077;-95
2023/10/28 08:27:20;;;;;;;6.40;3.70;;;8.80;99.90;;;;;;5061279;28;20214;-94
2023/10/28 08:29:46;;;;;;;6.32;3.33;;;8.80;99.90;;;;;;5070909;28;20021;-96
2023/10/28 08:32:13;;;;;;;9.70;2.90;;;8.90;99.90;;;;;;5071588;28;20021;-95
2023/10/28 08:34:39;;;;;;;4.85;2.58;;;8.90;99.90;;;;;;5066530;28;20079;-95
2023/10/28 08:37:05;;;;;;;6.20;3.17;;;8.90;99.90;;;;;;5064157;28;20052;-95
2023/10/28 08:39:31;;;;;;;7.70;4.18;;;8.90;99.90;;;;;;5063809;28;20024;-95
2023/10/28 08:42:04;;;;;;;5.10;2.80;;;8.80;99.90;;;;;;5062598;28;20025;-96
2023/10/28 08:44:32;;;;;;;5.53;3.42;;;8.90;99.90;;;;;;5064750;28;20111;-95
2023/10/28 08:46:59;;;;;;;7.50;3.63;;;8.90;99.90;;;;;;5064742;28;20020;-95
2023/10/28 08:49:26;;;;;;;5.53;3.33;;;8.90;99.90;;;;;;5065705;28;20031;-96
2023/10/28 08:51:58;;;;;;;6.18;3.35;;;8.90;99.90;;;;;;5071695;28;20069;-95
2023/10/28 08:54:26;;;;;;;4.97;3.15;;;8.90;99.90;;;;;;5070798;28;20017;-96
2023/10/28 08:56:56;;;;;;;5.32;2.95;;;8.90;99.90;;;;;;5069194;28;20032;-95
2023/10/28 08:59:21;;;;;;;4.78;3.10;;;8.90;99.90;;;;;;5066867;28;20816;-95
2023/10/28 09:01:47;;;;;;;7.25;4.32;;;8.90;99.90;;;;;;5066654;28;20102;-96
2023/10/28 09:04:15;;;;;;;6.95;2.75;;;9.00;99.90;;;;;;5069961;28;20082;-95
2023/10/28 09:06:42;;;;;;;4.82;3.05;;;9.00;99.90;;;;;;5054800;28;20017;-94
2023/10/28 09:09:13;;;;;;;7.47;3.28;;;9.00;99.90;;;;;;5064535;28;20051;-95
2023/10/28 09:11:39;;;;;;;6.65;2.80;;;9.00;99.90;;;;;;5057739;28;20021;-96
2023/10/28 09:14:07;;;;;;;5.60;2.85;;;9.10;99.90;;;;;;5060493;28;20025;-95
2023/10/28 09:16:34;;;;;;;8.00;2.90;;;9.00;99.90;;;;;;5067758;28;20119;-95
2023/10/28 09:19:01;;;;;;;8.88;2.92;;;9.10;99.90;;;;;;5058909;28;20121;-95
2023/10/28 09:21:29;;;;;;;7.88;3.60;;;9.00;99.90;;;;;;5058710;28;20155;-95
2023/10/28 09:24:00;;;;;;;4.22;2.55;;;9.00;99.90;;;;;;5057827;28;20017;-94
2023/10/28 09:26:27;;;;;;;5.20;3.20;;;9.10;99.90;;;;;;5068610;28;20032;-96
2023/10/28 09:28:52;;;;;;;4.70;3.03;;;9.10;99.90;;;;;;5070705;28;20025;-95
2023/10/28 09:31:25;;;;;;;6.10;3.13;;;9.10;99.90;;;;;;5063552;28;20017;-94
2023/10/28 09:33:51;;;;;;;9.27;3.58;;;9.10;99.90;;;;;;5067410;28;20421;-95
2023/10/28 09:36:18;;;;;;;7.47;3.10;;;9.20;99.90;;;;;;5056017;28;20402;-94
2023/10/28 09:38:45;;;;;;;5.60;3.10;;;9.20;99.90;;;;;;5060989;28;20025;-95
2023/10/28 09:41:12;;;;;;;8.45;3.58;;;9.20;99.90;;;;;;5055445;28;20021;-95
2023/10/28 09:43:38;;;;;;;8.60;3.55;;;9.30;99.90;;;;;;5062004;28;20467;-95
2023/10/28 09:46:07;;;;;;;10.75;5.18;;;9.30;99.90;;;;;;5063821;28;20097;-94
2023/10/28 09:48:38;;;;;;;9.75;3.88;;;9.30;99.90;;;;;;5064887;28;20017;-96
2023/10/28 09:51:05;;;;;;;8.88;4.20;;;9.30;99.90;;;;;;5059951;28;20032;-94
2023/10/28 09:53:34;;;;;;;10.70;4.13;;;9.40;99.90;;;;;;5058540;28;20028;-96
2023/10/28 09:56:02;;;;;;;7.30;4.03;;;9.40;99.90;;;;;;5059820;28;20033;-95
2023/10/28 09:58:41;;;;;;;9.02;3.95;;;9.40;99.90;;;;;;5063862;28;20025;-95
2023/10/28 10:01:20;;;;;;;10.88;4.47;;;9.50;99.90;;;;;;5066641;28;20016;-96
2023/10/28 10:04:00;;;;;;;9.07;4.18;;;9.60;99.90;;;;;;5070567;28;20082;-95
2023/10/28 10:06:27;;;;;;;8.35;4.10;;;9.70;99.90;;;;;;5063756;28;20036;-94
2023/10/28 10:08:55;;;;;;;16.92;4.55;;;9.70;99.90;;;;;;5057226;28;20028;-94
2023/10/28 10:11:25;;;;;;;14.70;4.07;;;9.80;99.90;;;;;;5064275;28;20039;-95
2023/10/28 10:13:51;;;;;;;12.33;4.33;;;9.80;99.90;;;;;;5064690;28;20027;-95
2023/10/28 10:16:46;;;;;;;9.77;3.58;;;9.90;99.90;;;;;;5063675;28;20391;-95
2023/10/28 10:19:20;;;;;;;15.73;3.95;;;10.00;99.90;;;;;;5075491;28;20242;-95
2023/10/28 10:21:52;;;;;;;9.18;4.07;;;10.00;99.90;;;;;;5075329;28;20032;-96
2023/10/28 10:24:19;;;;;;;10.20;3.75;;;10.00;99.90;;;;;;5074016;28;20032;-96
2023/10/28 10:26:55;;;;;;;7.20;3.67;;;10.00;99.90;;;;;;5073230;28;20059;-96
2023/10/28 10:29:20;;;;;;;8.80;4.40;;;10.00;99.90;;;;;;5073722;28;20146;-94
2023/10/28 10:31:55;;;;;;;8.30;3.63;;;10.10;99.90;;;;;;5073418;28;20051;-96
2023/10/28 10:34:37;;;;;;;6.50;3.45;;;10.10;99.90;;;;;;5075476;28;20045;-95
2023/10/28 10:37:04;;;;;;;7.47;3.47;;;10.20;99.90;;;;;;5074435;28;20024;-96
2023/10/28 10:39:42;;;;;;;9.00;3.13;;;10.30;99.90;;;;;;5074764;28;20532;-94
2023/10/28 10:42:10;;;;;;;10.10;3.33;;;10.50;99.90;;;;;;5076038;28;20394;-95
2023/10/28 10:44:36;;;;;;;5.53;3.13;;;10.50;99.90;;;;;;5074240;28;20071;-96
2023/10/28 10:47:04;;;;;;;8.00;3.80;;;10.70;99.90;;;;;;5065196;28;20039;-96
2023/10/28 10:49:31;;;;;;;7.70;3.97;;;10.80;99.90;;;;;;5068447;28;20020;-94
2023/10/28 10:52:01;;;;;;;19.60;9.02;;;10.90;99.90;;;;;;5063834;28;20592;-94
2023/10/28 10:54:30;;;;;;;6.95;3.90;;;11.00;99.90;;;;;;5060428;28;20082;-94
2023/10/28 10:56:56;;;;;;;8.35;3.78;;;11.00;99.90;;;;;;5064594;28;20044;-93
2023/10/28 10:59:23;;;;;;;6.82;3.50;;;11.10;99.90;;;;;;5078325;28;20119;-95
2023/10/28 11:01:49;;;;;;;7.13;3.72;;;11.20;99.90;;;;;;5070689;28;20020;-94
2023/10/28 11:04:17;;;;;;;8.13;3.22;;;11.40;99.90;;;;;;5072847;28;20485;-96
2023/10/28 11:06:44;;;;;;;8.52;4.30;;;11.50;99.90;;;;;;5080570;28;20028;-93
2023/10/28 11:09:09;;;;;;;6.47;4.07;;;11.50;99.90;;;;;;5088276;28;20033;-95
2023/10/28 11:11:38;;;;;;;9.55;4.95;;;11.60;99.90;;;;;;5079990;28;20024;-96
2023/10/28 11:14:05;;;;;;;6.97;3.83;;;11.70;99.90;;;;;;5083944;28;20080;-95
2023/10/28 11:16:32;;;;;;;7.20;3.65;;;11.60;99.90;;;;;;5080448;28;20033;-96
2023/10/28 11:19:02;;;;;;;8.63;3.10;;;11.60;99.90;;;;;;5070720;28;20024;-94
2023/10/28 11:21:30;;;;;;;6.30;3.53;;;11.60;99.90;;;;;;5079574;28;20534;-95
2023/10/28 11:23:56;;;;;;;4.25;2.95;;;11.70;99.90;;;;;;5078107;28;20055;-94
2023/10/28 11:26:23;;;;;;;5.85;2.85;;;11.80;99.90;;;;;;5091781;28;20110;-96
2023/10/28 11:28:49;;;;;;;9.02;3.58;;;11.80;99.90;;;;;;5076981;28;20046;-95
2023/10/28 11:31:19;;;;;;;5.00;3.22;;;11.80;99.90;;;;;;5068942;28;20056;-94
2023/10/28 11:33:45;;;;;;;5.35;3.33;;;11.80;99.90;;;;;;5066557;28;20071;-95
2023/10/28 11:36:11;;;;;;;5.85;3.47;;;11.80;99.90;;;;;;5058806;28;20463;-93
2023/10/28 11:38:37;;;;;;;5.28;3.28;;;11.80;99.90;;;;;;5078184;28;20051;-95
2023/10/28 11:41:08;;;;;;;8.98;4.50;;;11.70;99.90;;;;;;5074724;28;20028;-94
2023/10/28 11:43:34;;;;;;;6.15;3.58;;;11.60;99.90;;;;;;5075068;28;20020;-93
2023/10/28 11:46:00;;;;;;;6.85;3.35;;;11.60;99.90;;;;;;5076694;28;20032;-95
2023/10/28 11:48:26;;;;;;;5.03;3.25;;;11.50;99.90;;;;;;5076227;28;20184;-94
2023/10/28 11:50:52;;;;;;;6.97;3.45;;;11.50;99.90;;;;;;5073001;28;20024;-94
2023/10/28 11:53:25;;;;;;;6.85;4.10;;;11.40;99.90;;;;;;5079220;28;20005;-95
2023/10/28 11:55:54;;;;;;;8.63;3.70;;;11.40;99.90;;;;;;5078689;28;20037;-95
2023/10/28 11:58:24;;;;;;;9.88;3.28;;;11.40;99.90;;;;;;5079358;28;20028;-91
2023/10/28 12:00:56;;;;;;;10.65;3.60;;;11.40;99.90;;;;;;5077305;28;20029;-93
2023/10/28 12:03:23;;;;;;;7.28;3.78;;;11.30;99.90;;;;;;5063232;28;20370;-94
2023/10/28 12:05:49;;;;;;;5.93;3.50;;;11.30;99.90;;;;;;5076633;28;20058;-93
2023/10/28 12:08:17;;;;;;;7.47;4.07;;;11.30;99.90;;;;;;5070888;28;20028;-94
2023/10/28 12:10:44;;;;;;;7.38;4.10;;;11.20;99.90;;;;;;5069716;28;20059;-94
2023/10/28 12:13:14;;;;;;;8.32;4.82;;;11.20;99.90;;;;;;5069022;28;20020;-95
2023/10/28 12:15:40;;;;;;;7.75;4.10;;;11.20;99.90;;;;;;5065721;28;20170;-93
2023/10/28 12:18:07;;;;;;;6.50;3.63;;;11.10;99.90;;;;;;5060975;28;20021;-94
2023/10/28 12:20:33;;;;;;;6.18;3.72;;;11.00;99.90;;;;;;5064181;28;20082;-94
2023/10/28 12:22:59;;;;;;;9.75;4.65;;;11.10;99.90;;;;;;5069116;28;20076;-94
2023/10/28 12:25:25;;;;;;;9.18;4.70;;;11.00;99.90;;;;;;5063856;28;20053;-93
2023/10/28 12:27:51;;;;;;;12.27;4.78;;;11.00;99.90;;;;;;5064518;28;20404;-94
2023/10/28 12:30:18;;;;;;;11.20;4.18;;;11.00;99.90;;;;;;5059194;28;20084;-94
2023/10/28 12:32:44;;;;;;;9.70;4.75;;;11.10;99.90;;;;;;5066650;28;20123;-94
2023/10/28 12:35:10;;;;;;;13.65;5.20;;;11.10;99.90;;;;;;5077583;28;20060;-94
2023/10/28 12:37:36;;;;;;;10.32;4.90;;;11.10;99.90;;;;;;5069140;28;20103;-93
2023/10/28 12:40:02;;;;;;;9.80;4.35;;;11.20;99.90;;;;;;5064368;28;20131;-94
2023/10/28 12:42:28;;;;;;;14.65;6.57;;;11.20;99.90;;;;;;5071083;28;20021;-93
2023/10/28 12:44:55;;;;;;;8.77;4.75;;;11.20;99.90;;;;;;5079482;28;20009;-92
2023/10/28 12:47:21;;;;;;;10.25;4.80;;;11.20;99.90;;;;;;5081948;28;20033;-96